sensor_id;sensor_type;location;lat;lon;timestamp;pressure;altitude;pressure_sealevel;temperature
68939;BMP180;59064;45.294;11.816;2022-09-09T00:02:03;101004.60;;;21.00
68939;BMP180;59064;45.294;11.816;2022-09-09T00:04:32;101003.20;;;21.00
68939;BMP180;59064;45.294;11.816;2022-09-09T00:14:59;101005.60;;;20.96
68939;BMP180;59064;45.294;11.816;2022-09-09T00:17:43;101003.20;;;20.98
68939;BMP180;59064;45.294;11.816;2022-09-09T00:23:34;100994.60;;;20.90
68939;BMP180;59064;45.294;11.816;2022-09-09T00:26:38;100991.60;;;20.90
68939;BMP180;59064;45.294;11.816;2022-09-09T00:29:24;100993.60;;;20.90
68939;BMP180;59064;45.294;11.816;2022-09-09T00:31:57;100997.20;;;20.90
68939;BMP180;59064;45.294;11.816;2022-09-09T00:34:26;100994.80;;;20.90
68939;BMP180;59064;45.294;11.816;2022-09-09T00:36:54;100991.00;;;20.90
68939;BMP180;59064;45.294;11.816;2022-09-09T00:39:32;100992.40;;;20.90
68939;BMP180;59064;45.294;11.816;2022-09-09T00:42:18;100986.20;;;20.90
68939;BMP180;59064;45.294;11.816;2022-09-09T00:47:50;100985.00;;;20.90
68939;BMP180;59064;45.294;11.816;2022-09-09T00:56:13;100976.80;;;20.84
68939;BMP180;59064;45.294;11.816;2022-09-09T00:58:43;100974.80;;;20.80
68939;BMP180;59064;45.294;11.816;2022-09-09T01:01:13;100976.00;;;20.80
68939;BMP180;59064;45.294;11.816;2022-09-09T01:03:56;100972.40;;;20.80
68939;BMP180;59064;45.294;11.816;2022-09-09T01:12:17;100986.20;;;20.70
68939;BMP180;59064;45.294;11.816;2022-09-09T01:14:49;100996.60;;;20.62
68939;BMP180;59064;45.294;11.816;2022-09-09T01:17:22;100996.80;;;20.60
68939;BMP180;59064;45.294;11.816;2022-09-09T01:22:43;100992.80;;;20.60
68939;BMP180;59064;45.294;11.816;2022-09-09T01:27:57;100992.80;;;20.62
68939;BMP180;59064;45.294;11.816;2022-09-09T01:30:24;100991.80;;;20.64
68939;BMP180;59064;45.294;11.816;2022-09-09T01:32:56;100988.00;;;20.70
68939;BMP180;59064;45.294;11.816;2022-09-09T01:35:54;100983.40;;;20.70
68939;BMP180;59064;45.294;11.816;2022-09-09T01:38:22;100980.00;;;20.70
68939;BMP180;59064;45.294;11.816;2022-09-09T01:40:49;100974.60;;;20.70
68939;BMP180;59064;45.294;11.816;2022-09-09T01:43:21;100973.00;;;20.70
68939;BMP180;59064;45.294;11.816;2022-09-09T01:45:52;100969.40;;;20.70
68939;BMP180;59064;45.294;11.816;2022-09-09T01:48:18;100974.20;;;20.66
68939;BMP180;59064;45.294;11.816;2022-09-09T01:50:44;100973.20;;;20.70
68939;BMP180;59064;45.294;11.816;2022-09-09T01:53:11;100977.00;;;20.60
68939;BMP180;59064;45.294;11.816;2022-09-09T01:55:46;100973.20;;;20.60
68939;BMP180;59064;45.294;11.816;2022-09-09T02:01:50;100972.40;;;20.54
68939;BMP180;59064;45.294;11.816;2022-09-09T02:04:32;100976.00;;;20.50
68939;BMP180;59064;45.294;11.816;2022-09-09T02:06:59;100974.60;;;20.50
68939;BMP180;59064;45.294;11.816;2022-09-09T02:09:26;100966.40;;;20.50
68939;BMP180;59064;45.294;11.816;2022-09-09T02:12:05;100964.80;;;20.54
68939;BMP180;59064;45.294;11.816;2022-09-09T02:14:42;100966.60;;;20.60
68939;BMP180;59064;45.294;11.816;2022-09-09T02:17:14;100966.80;;;20.60
68939;BMP180;59064;45.294;11.816;2022-09-09T02:19:54;100965.60;;;20.60
68939;BMP180;59064;45.294;11.816;2022-09-09T02:22:24;100961.40;;;20.54
68939;BMP180;59064;45.294;11.816;2022-09-09T02:24:53;100969.00;;;20.50
68939;BMP180;59064;45.294;11.816;2022-09-09T02:27:22;100963.00;;;20.50
68939;BMP180;59064;45.294;11.816;2022-09-09T02:29:49;100962.80;;;20.50
68939;BMP180;59064;45.294;11.816;2022-09-09T02:32:20;100955.40;;;20.40
68939;BMP180;59064;45.294;11.816;2022-09-09T02:34:55;100955.60;;;20.40
68939;BMP180;59064;45.294;11.816;2022-09-09T02:37:28;100958.80;;;20.32
68939;BMP180;59064;45.294;11.816;2022-09-09T02:39:57;100958.00;;;20.30
68939;BMP180;59064;45.294;11.816;2022-09-09T02:42:22;100959.20;;;20.26
68939;BMP180;59064;45.294;11.816;2022-09-09T02:44:49;100951.60;;;20.20
68939;BMP180;59064;45.294;11.816;2022-09-09T02:47:29;100945.80;;;20.20
68939;BMP180;59064;45.294;11.816;2022-09-09T02:57:57;100950.60;;;20.20
68939;BMP180;59064;45.294;11.816;2022-09-09T03:00:28;100955.20;;;20.20
68939;BMP180;59064;45.294;11.816;2022-09-09T03:02:54;100951.40;;;20.30
68939;BMP180;59064;45.294;11.816;2022-09-09T03:05:21;100952.60;;;20.30
68939;BMP180;59064;45.294;11.816;2022-09-09T03:07:47;100950.60;;;20.30
68939;BMP180;59064;45.294;11.816;2022-09-09T03:10:13;100950.40;;;20.30
68939;BMP180;59064;45.294;11.816;2022-09-09T03:12:39;100946.60;;;20.30
68939;BMP180;59064;45.294;11.816;2022-09-09T03:15:06;100944.40;;;20.30
68939;BMP180;59064;45.294;11.816;2022-09-09T03:17:32;100945.20;;;20.20
68939;BMP180;59064;45.294;11.816;2022-09-09T03:19:58;100937.00;;;20.20
68939;BMP180;59064;45.294;11.816;2022-09-09T03:22:24;100939.80;;;20.10
68939;BMP180;59064;45.294;11.816;2022-09-09T03:24:51;100937.80;;;20.10
68939;BMP180;59064;45.294;11.816;2022-09-09T03:27:18;100942.20;;;20.10
68939;BMP180;59064;45.294;11.816;2022-09-09T03:29:45;100944.40;;;20.04
68939;BMP180;59064;45.294;11.816;2022-09-09T03:32:12;100937.80;;;20.00
68939;BMP180;59064;45.294;11.816;2022-09-09T03:34:38;100934.60;;;20.00
68939;BMP180;59064;45.294;11.816;2022-09-09T03:37:07;100940.20;;;20.00
68939;BMP180;59064;45.294;11.816;2022-09-09T03:39:33;100935.80;;;20.00
68939;BMP180;59064;45.294;11.816;2022-09-09T03:41:58;100933.00;;;20.00
68939;BMP180;59064;45.294;11.816;2022-09-09T03:44:24;100936.60;;;20.00
68939;BMP180;59064;45.294;11.816;2022-09-09T03:46:49;100933.20;;;20.00
68939;BMP180;59064;45.294;11.816;2022-09-09T03:49:15;100932.20;;;19.90
68939;BMP180;59064;45.294;11.816;2022-09-09T03:51:42;100929.60;;;19.90
68939;BMP180;59064;45.294;11.816;2022-09-09T03:54:08;100931.80;;;19.90
68939;BMP180;59064;45.294;11.816;2022-09-09T03:56:36;100929.40;;;19.90
68939;BMP180;59064;45.294;11.816;2022-09-09T03:59:03;100924.20;;;19.90
68939;BMP180;59064;45.294;11.816;2022-09-09T04:01:29;100921.00;;;19.90
68939;BMP180;59064;45.294;11.816;2022-09-09T04:03:55;100925.00;;;19.90
68939;BMP180;59064;45.294;11.816;2022-09-09T04:06:24;100930.80;;;19.90
68939;BMP180;59064;45.294;11.816;2022-09-09T04:08:50;100934.20;;;19.90
68939;BMP180;59064;45.294;11.816;2022-09-09T04:11:17;100933.00;;;19.90
68939;BMP180;59064;45.294;11.816;2022-09-09T04:13:43;100932.20;;;19.82
68939;BMP180;59064;45.294;11.816;2022-09-09T04:16:11;100930.40;;;19.80
68939;BMP180;59064;45.294;11.816;2022-09-09T04:18:38;100928.80;;;19.80
68939;BMP180;59064;45.294;11.816;2022-09-09T04:21:05;100931.40;;;19.80
68939;BMP180;59064;45.294;11.816;2022-09-09T04:23:33;100932.20;;;19.80
68939;BMP180;59064;45.294;11.816;2022-09-09T04:26:01;100928.00;;;19.80
68939;BMP180;59064;45.294;11.816;2022-09-09T04:28:31;100929.80;;;19.80
68939;BMP180;59064;45.294;11.816;2022-09-09T04:31:03;100925.40;;;19.80
68939;BMP180;59064;45.294;11.816;2022-09-09T04:33:29;100920.20;;;19.80
68939;BMP180;59064;45.294;11.816;2022-09-09T04:35:56;100917.40;;;19.76
68939;BMP180;59064;45.294;11.816;2022-09-09T04:38:22;100912.60;;;19.80
68939;BMP180;59064;45.294;11.816;2022-09-09T04:40:50;100919.00;;;19.80
68939;BMP180;59064;45.294;11.816;2022-09-09T04:43:17;100918.40;;;19.80
68939;BMP180;59064;45.294;11.816;2022-09-09T04:45:48;100917.60;;;19.80
68939;BMP180;59064;45.294;11.816;2022-09-09T04:48:14;100910.40;;;19.80
68939;BMP180;59064;45.294;11.816;2022-09-09T04:50:40;100911.00;;;19.80
68939;BMP180;59064;45.294;11.816;2022-09-09T04:53:06;100911.60;;;19.80
68939;BMP180;59064;45.294;11.816;2022-09-09T04:55:33;100908.80;;;19.80
68939;BMP180;59064;45.294;11.816;2022-09-09T04:58:07;100912.00;;;19.82
68939;BMP180;59064;45.294;11.816;2022-09-09T05:00:35;100906.80;;;19.90
68939;BMP180;59064;45.294;11.816;2022-09-09T05:03:05;100905.60;;;19.90
68939;BMP180;59064;45.294;11.816;2022-09-09T05:05:33;100903.40;;;19.90
68939;BMP180;59064;45.294;11.816;2022-09-09T05:08:07;100902.40;;;19.90
68939;BMP180;59064;45.294;11.816;2022-09-09T05:10:37;100904.20;;;20.00
68939;BMP180;59064;45.294;11.816;2022-09-09T05:13:03;100909.00;;;20.00
68939;BMP180;59064;45.294;11.816;2022-09-09T05:15:30;100914.00;;;20.00
68939;BMP180;59064;45.294;11.816;2022-09-09T05:18:01;100923.00;;;20.10
68939;BMP180;59064;45.294;11.816;2022-09-09T05:20:28;100922.40;;;20.10
68939;BMP180;59064;45.294;11.816;2022-09-09T05:22:55;100917.20;;;20.20
68939;BMP180;59064;45.294;11.816;2022-09-09T05:25:22;100919.60;;;20.22
68939;BMP180;59064;45.294;11.816;2022-09-09T05:27:48;100918.40;;;20.30
68939;BMP180;59064;45.294;11.816;2022-09-09T05:30:15;100918.80;;;20.40
68939;BMP180;59064;45.294;11.816;2022-09-09T05:32:41;100922.20;;;20.40
68939;BMP180;59064;45.294;11.816;2022-09-09T05:35:06;100921.20;;;20.48
68939;BMP180;59064;45.294;11.816;2022-09-09T05:37:32;100918.40;;;20.50
68939;BMP180;59064;45.294;11.816;2022-09-09T05:39:58;100923.60;;;20.60
68939;BMP180;59064;45.294;11.816;2022-09-09T05:42:24;100932.60;;;20.60
68939;BMP180;59064;45.294;11.816;2022-09-09T05:44:50;100930.40;;;20.70
68939;BMP180;59064;45.294;11.816;2022-09-09T05:47:16;100933.20;;;20.80
68939;BMP180;59064;45.294;11.816;2022-09-09T05:49:43;100928.80;;;20.90
68939;BMP180;59064;45.294;11.816;2022-09-09T05:52:08;100930.60;;;21.08
68939;BMP180;59064;45.294;11.816;2022-09-09T05:54:35;100933.80;;;21.24
68939;BMP180;59064;45.294;11.816;2022-09-09T05:57:03;100938.20;;;21.40
68939;BMP180;59064;45.294;11.816;2022-09-09T05:59:29;100936.60;;;21.50
68939;BMP180;59064;45.294;11.816;2022-09-09T06:01:54;100943.20;;;21.50
68939;BMP180;59064;45.294;11.816;2022-09-09T06:04:20;100945.20;;;21.40
68939;BMP180;59064;45.294;11.816;2022-09-09T06:06:47;100955.60;;;21.40
68939;BMP180;59064;45.294;11.816;2022-09-09T06:09:14;100957.00;;;21.40
68939;BMP180;59064;45.294;11.816;2022-09-09T06:11:41;100957.60;;;21.40
68939;BMP180;59064;45.294;11.816;2022-09-09T06:14:07;100955.20;;;21.38
68939;BMP180;59064;45.294;11.816;2022-09-09T06:16:34;100951.20;;;21.40
68939;BMP180;59064;45.294;11.816;2022-09-09T06:19:01;100953.80;;;21.50
68939;BMP180;59064;45.294;11.816;2022-09-09T06:21:30;100945.00;;;21.60
68939;BMP180;59064;45.294;11.816;2022-09-09T06:23:57;100946.00;;;21.70
68939;BMP180;59064;45.294;11.816;2022-09-09T06:26:26;100947.40;;;21.60
68939;BMP180;59064;45.294;11.816;2022-09-09T06:28:54;100941.40;;;21.60
68939;BMP180;59064;45.294;11.816;2022-09-09T06:31:23;100944.80;;;21.70
68939;BMP180;59064;45.294;11.816;2022-09-09T06:33:51;100943.40;;;21.90
68939;BMP180;59064;45.294;11.816;2022-09-09T06:36:23;100936.20;;;21.90
68939;BMP180;59064;45.294;11.816;2022-09-09T06:38:49;100936.20;;;22.02
68939;BMP180;59064;45.294;11.816;2022-09-09T06:41:18;100936.60;;;22.12
68939;BMP180;59064;45.294;11.816;2022-09-09T06:43:45;100939.00;;;22.30
68939;BMP180;59064;45.294;11.816;2022-09-09T06:46:14;100936.80;;;22.40
68939;BMP180;59064;45.294;11.816;2022-09-09T06:48:42;100931.60;;;22.52
68939;BMP180;59064;45.294;11.816;2022-09-09T06:51:13;100928.60;;;22.60
68939;BMP180;59064;45.294;11.816;2022-09-09T06:53:41;100926.40;;;22.70
68939;BMP180;59064;45.294;11.816;2022-09-09T06:58:45;100926.20;;;22.80
68939;BMP180;59064;45.294;11.816;2022-09-09T07:01:15;100919.80;;;23.00
68939;BMP180;59064;45.294;11.816;2022-09-09T07:03:44;100920.40;;;23.08
68939;BMP180;59064;45.294;11.816;2022-09-09T07:06:26;100914.60;;;23.20
68939;BMP180;59064;45.294;11.816;2022-09-09T07:08:59;100916.00;;;23.26
68939;BMP180;59064;45.294;11.816;2022-09-09T07:11:52;100912.00;;;23.30
68939;BMP180;59064;45.294;11.816;2022-09-09T07:14:19;100910.60;;;23.40
68939;BMP180;59064;45.294;11.816;2022-09-09T07:16:46;100909.20;;;23.50
68939;BMP180;59064;45.294;11.816;2022-09-09T07:19:13;100903.00;;;23.60
68939;BMP180;59064;45.294;11.816;2022-09-09T07:21:40;100907.20;;;23.80
68939;BMP180;59064;45.294;11.816;2022-09-09T07:24:06;100908.60;;;23.90
68939;BMP180;59064;45.294;11.816;2022-09-09T07:26:36;100911.00;;;24.10
68939;BMP180;59064;45.294;11.816;2022-09-09T07:29:03;100908.20;;;24.30
68939;BMP180;59064;45.294;11.816;2022-09-09T07:31:32;100903.40;;;24.40
68939;BMP180;59064;45.294;11.816;2022-09-09T07:34:00;100897.60;;;24.40
68939;BMP180;59064;45.294;11.816;2022-09-09T07:36:44;100896.40;;;24.42
68939;BMP180;59064;45.294;11.816;2022-09-09T07:39:12;100896.00;;;24.50
68939;BMP180;59064;45.294;11.816;2022-09-09T07:41:48;100891.40;;;24.60
68939;BMP180;59064;45.294;11.816;2022-09-09T07:44:21;100890.60;;;24.70
68939;BMP180;59064;45.294;11.816;2022-09-09T07:46:47;100894.20;;;24.84
68939;BMP180;59064;45.294;11.816;2022-09-09T07:49:14;100893.40;;;25.00
68939;BMP180;59064;45.294;11.816;2022-09-09T07:51:46;100893.40;;;25.20
68939;BMP180;59064;45.294;11.816;2022-09-09T07:54:14;100892.60;;;25.40
68939;BMP180;59064;45.294;11.816;2022-09-09T07:56:41;100897.00;;;25.48
68939;BMP180;59064;45.294;11.816;2022-09-09T07:59:08;100898.00;;;25.52
68939;BMP180;59064;45.294;11.816;2022-09-09T08:01:40;100898.80;;;25.60
68939;BMP180;59064;45.294;11.816;2022-09-09T08:04:16;100905.20;;;25.70
68939;BMP180;59064;45.294;11.816;2022-09-09T08:06:52;100908.60;;;25.80
68939;BMP180;59064;45.294;11.816;2022-09-09T08:09:19;100913.80;;;25.90
68939;BMP180;59064;45.294;11.816;2022-09-09T08:11:45;100916.60;;;25.80
68939;BMP180;59064;45.294;11.816;2022-09-09T08:14:12;100915.40;;;25.70
68939;BMP180;59064;45.294;11.816;2022-09-09T08:16:49;100916.20;;;25.70
68939;BMP180;59064;45.294;11.816;2022-09-09T08:19:34;100921.60;;;25.70
68939;BMP180;59064;45.294;11.816;2022-09-09T08:22:02;100924.00;;;25.70
68939;BMP180;59064;45.294;11.816;2022-09-09T08:24:29;100929.60;;;25.60
68939;BMP180;59064;45.294;11.816;2022-09-09T08:26:54;100929.00;;;25.80
68939;BMP180;59064;45.294;11.816;2022-09-09T08:29:22;100931.60;;;25.92
68939;BMP180;59064;45.294;11.816;2022-09-09T08:31:57;100937.40;;;26.20
68939;BMP180;59064;45.294;11.816;2022-09-09T08:34:25;100938.60;;;26.50
68939;BMP180;59064;45.294;11.816;2022-09-09T08:36:53;100942.40;;;26.60
68939;BMP180;59064;45.294;11.816;2022-09-09T08:39:21;100943.80;;;26.60
68939;BMP180;59064;45.294;11.816;2022-09-09T08:42:04;100940.00;;;26.50
68939;BMP180;59064;45.294;11.816;2022-09-09T08:48:09;100943.60;;;26.34
68939;BMP180;59064;45.294;11.816;2022-09-09T08:50:38;100940.40;;;26.40
68939;BMP180;59064;45.294;11.816;2022-09-09T08:53:27;100945.40;;;26.52
68939;BMP180;59064;45.294;11.816;2022-09-09T08:56:02;100949.60;;;26.80
68939;BMP180;59064;45.294;11.816;2022-09-09T08:58:32;100946.20;;;26.90
68939;BMP180;59064;45.294;11.816;2022-09-09T09:12:23;100943.80;;;27.70
68939;BMP180;59064;45.294;11.816;2022-09-09T09:14:50;100955.60;;;27.60
68939;BMP180;59064;45.294;11.816;2022-09-09T09:17:20;100949.00;;;27.40
68939;BMP180;59064;45.294;11.816;2022-09-09T09:19:48;100945.40;;;27.34
68939;BMP180;59064;45.294;11.816;2022-09-09T09:22:41;100936.20;;;27.24
68939;BMP180;59064;45.294;11.816;2022-09-09T09:25:23;100940.40;;;27.00
68939;BMP180;59064;45.294;11.816;2022-09-09T09:28:00;100941.40;;;26.80
68939;BMP180;59064;45.294;11.816;2022-09-09T09:30:36;100933.60;;;26.80
68939;BMP180;59064;45.294;11.816;2022-09-09T09:36:09;100918.60;;;27.00
68939;BMP180;59064;45.294;11.816;2022-09-09T09:38:36;100925.80;;;27.10
68939;BMP180;59064;45.294;11.816;2022-09-09T09:41:02;100933.40;;;27.20
68939;BMP180;59064;45.294;11.816;2022-09-09T09:43:40;100929.40;;;26.90
68939;BMP180;59064;45.294;11.816;2022-09-09T09:46:23;100925.40;;;26.64
68939;BMP180;59064;45.294;11.816;2022-09-09T09:48:58;100913.80;;;26.40
68939;BMP180;59064;45.294;11.816;2022-09-09T09:51:25;100918.20;;;26.20
68939;BMP180;59064;45.294;11.816;2022-09-09T09:53:51;100931.20;;;26.00
68939;BMP180;59064;45.294;11.816;2022-09-09T09:56:27;100937.20;;;25.88
68939;BMP180;59064;45.294;11.816;2022-09-09T09:58:58;100931.40;;;25.64
68939;BMP180;59064;45.294;11.816;2022-09-09T10:01:32;100946.00;;;25.50
68939;BMP180;59064;45.294;11.816;2022-09-09T10:04:15;100947.80;;;25.50
68939;BMP180;59064;45.294;11.816;2022-09-09T10:06:43;100936.20;;;25.42
68939;BMP180;59064;45.294;11.816;2022-09-09T10:09:29;100939.80;;;25.40
68939;BMP180;59064;45.294;11.816;2022-09-09T10:15:24;100942.40;;;25.10
68939;BMP180;59064;45.294;11.816;2022-09-09T10:33:05;100935.60;;;24.90
68939;BMP180;59064;45.294;11.816;2022-09-09T10:38:24;100928.20;;;25.08
68939;BMP180;59064;45.294;11.816;2022-09-09T10:50:02;100942.20;;;25.50
68939;BMP180;59064;45.294;11.816;2022-09-09T10:52:51;100936.60;;;25.20
68939;BMP180;59064;45.294;11.816;2022-09-09T10:55:24;100939.00;;;25.00
68939;BMP180;59064;45.294;11.816;2022-09-09T10:57:58;100937.00;;;24.94
68939;BMP180;59064;45.294;11.816;2022-09-09T11:00:46;100941.20;;;25.00
68939;BMP180;59064;45.294;11.816;2022-09-09T11:03:31;100936.40;;;25.26
68939;BMP180;59064;45.294;11.816;2022-09-09T11:06:21;100932.20;;;25.50
68939;BMP180;59064;45.294;11.816;2022-09-09T11:08:51;100935.00;;;25.80
68939;BMP180;59064;45.294;11.816;2022-09-09T11:11:39;100929.40;;;25.84
68939;BMP180;59064;45.294;11.816;2022-09-09T11:17:32;100928.80;;;25.62
68939;BMP180;59064;45.294;11.816;2022-09-09T11:19:59;100922.20;;;25.70
68939;BMP180;59064;45.294;11.816;2022-09-09T11:22:35;100923.00;;;26.00
68939;BMP180;59064;45.294;11.816;2022-09-09T11:25:10;100911.40;;;26.16
68939;BMP180;59064;45.294;11.816;2022-09-09T11:28:05;100903.20;;;26.24
68939;BMP180;59064;45.294;11.816;2022-09-09T11:40:19;100873.80;;;26.54
68939;BMP180;59064;45.294;11.816;2022-09-09T11:42:47;100873.80;;;26.80
68939;BMP180;59064;45.294;11.816;2022-09-09T11:45:26;100839.40;;;27.00
68939;BMP180;59064;45.294;11.816;2022-09-09T11:47:59;100840.60;;;27.04
68939;BMP180;59064;45.294;11.816;2022-09-09T11:53:23;100910.20;;;27.02
68939;BMP180;59064;45.294;11.816;2022-09-09T11:56:26;100869.20;;;26.40
68939;BMP180;59064;45.294;11.816;2022-09-09T11:59:05;100870.00;;;25.88
68939;BMP180;59064;45.294;11.816;2022-09-09T12:01:42;100875.40;;;25.48
68939;BMP180;59064;45.294;11.816;2022-09-09T12:09:58;100917.40;;;24.68
68939;BMP180;59064;45.294;11.816;2022-09-09T12:12:34;100930.40;;;24.32
68939;BMP180;59064;45.294;11.816;2022-09-09T12:17:50;100963.60;;;23.90
68939;BMP180;59064;45.294;11.816;2022-09-09T12:33:38;100998.80;;;21.50
68939;BMP180;59064;45.294;11.816;2022-09-09T12:36:36;100999.20;;;21.50
68939;BMP180;59064;45.294;11.816;2022-09-09T12:39:45;101001.80;;;21.42
68939;BMP180;59064;45.294;11.816;2022-09-09T12:42:21;101010.40;;;21.40
68939;BMP180;59064;45.294;11.816;2022-09-09T12:50:38;101021.80;;;21.00
68939;BMP180;59064;45.294;11.816;2022-09-09T12:56:00;100993.00;;;20.70
68939;BMP180;59064;45.294;11.816;2022-09-09T12:58:29;100968.00;;;20.70
68939;BMP180;59064;45.294;11.816;2022-09-09T13:01:00;100953.00;;;20.70
68939;BMP180;59064;45.294;11.816;2022-09-09T13:03:27;100938.80;;;20.80
68939;BMP180;59064;45.294;11.816;2022-09-09T13:05:57;100938.60;;;20.90
68939;BMP180;59064;45.294;11.816;2022-09-09T13:08:25;100949.80;;;21.02
68939;BMP180;59064;45.294;11.816;2022-09-09T13:11:08;100950.20;;;21.26
68939;BMP180;59064;45.294;11.816;2022-09-09T13:13:41;100940.00;;;21.70
68939;BMP180;59064;45.294;11.816;2022-09-09T13:16:27;100922.60;;;22.36
68939;BMP180;59064;45.294;11.816;2022-09-09T13:19:20;100906.80;;;23.44
68939;BMP180;59064;45.294;11.816;2022-09-09T13:21:47;100899.80;;;24.40
68939;BMP180;59064;45.294;11.816;2022-09-09T13:24:32;100902.20;;;25.54
68939;BMP180;59064;45.294;11.816;2022-09-09T13:27:01;100910.00;;;26.60
68939;BMP180;59064;45.294;11.816;2022-09-09T13:29:29;100908.00;;;27.36
68939;BMP180;59064;45.294;11.816;2022-09-09T13:32:17;100901.60;;;27.76
68939;BMP180;59064;45.294;11.816;2022-09-09T13:37:38;100887.80;;;27.30
68939;BMP180;59064;45.294;11.816;2022-09-09T13:40:17;100889.20;;;27.86
68939;BMP180;59064;45.294;11.816;2022-09-09T13:42:44;100890.60;;;28.74
68939;BMP180;59064;45.294;11.816;2022-09-09T13:45:24;100891.20;;;29.38
68939;BMP180;59064;45.294;11.816;2022-09-09T13:47:53;100894.20;;;30.18
68939;BMP180;59064;45.294;11.816;2022-09-09T13:50:30;100893.20;;;30.44
68939;BMP180;59064;45.294;11.816;2022-09-09T13:52:58;100888.80;;;30.14
68939;BMP180;59064;45.294;11.816;2022-09-09T13:55:27;100892.40;;;29.98
68939;BMP180;59064;45.294;11.816;2022-09-09T14:00:25;100890.60;;;30.30
68939;BMP180;59064;45.294;11.816;2022-09-09T14:02:51;100891.00;;;30.20
68939;BMP180;59064;45.294;11.816;2022-09-09T14:05:18;100891.40;;;30.26
68939;BMP180;59064;45.294;11.816;2022-09-09T14:07:44;100886.20;;;30.12
68939;BMP180;59064;45.294;11.816;2022-09-09T14:10:12;100885.20;;;30.24
68939;BMP180;59064;45.294;11.816;2022-09-09T14:12:38;100888.00;;;30.20
68939;BMP180;59064;45.294;11.816;2022-09-09T14:15:06;100889.20;;;30.30
68939;BMP180;59064;45.294;11.816;2022-09-09T14:17:33;100891.40;;;30.50
68939;BMP180;59064;45.294;11.816;2022-09-09T14:19:59;100891.80;;;30.70
68939;BMP180;59064;45.294;11.816;2022-09-09T14:22:25;100896.80;;;30.70
68939;BMP180;59064;45.294;11.816;2022-09-09T14:24:51;100898.00;;;30.84
68939;BMP180;59064;45.294;11.816;2022-09-09T14:27:17;100900.80;;;31.10
68939;BMP180;59064;45.294;11.816;2022-09-09T14:29:44;100896.60;;;31.30
68939;BMP180;59064;45.294;11.816;2022-09-09T14:32:11;100900.80;;;31.20
68939;BMP180;59064;45.294;11.816;2022-09-09T14:34:37;100897.80;;;31.46
68939;BMP180;59064;45.294;11.816;2022-09-09T14:37:03;100896.40;;;31.70
68939;BMP180;59064;45.294;11.816;2022-09-09T14:39:29;100893.00;;;31.70
68939;BMP180;59064;45.294;11.816;2022-09-09T14:41:55;100896.80;;;31.60
68939;BMP180;59064;45.294;11.816;2022-09-09T14:44:20;100899.20;;;31.70
68939;BMP180;59064;45.294;11.816;2022-09-09T14:46:47;100898.20;;;31.74
68939;BMP180;59064;45.294;11.816;2022-09-09T14:49:15;100901.20;;;31.66
68939;BMP180;59064;45.294;11.816;2022-09-09T14:51:41;100905.80;;;31.60
68939;BMP180;59064;45.294;11.816;2022-09-09T14:54:07;100906.20;;;31.56
68939;BMP180;59064;45.294;11.816;2022-09-09T14:56:34;100905.40;;;31.70
68939;BMP180;59064;45.294;11.816;2022-09-09T14:59:01;100907.40;;;31.94
68939;BMP180;59064;45.294;11.816;2022-09-09T15:01:28;100910.80;;;32.30
68939;BMP180;59064;45.294;11.816;2022-09-09T15:03:57;100908.80;;;32.40
68939;BMP180;59064;45.294;11.816;2022-09-09T15:06:25;100909.20;;;32.60
68939;BMP180;59064;45.294;11.816;2022-09-09T15:08:53;100914.00;;;32.80
68939;BMP180;59064;45.294;11.816;2022-09-09T15:11:20;100909.40;;;33.00
68939;BMP180;59064;45.294;11.816;2022-09-09T15:13:46;100905.20;;;33.30
68939;BMP180;59064;45.294;11.816;2022-09-09T15:16:18;100903.80;;;33.52
68939;BMP180;59064;45.294;11.816;2022-09-09T15:18:46;100900.40;;;33.70
68939;BMP180;59064;45.294;11.816;2022-09-09T15:21:16;100902.40;;;33.30
68939;BMP180;59064;45.294;11.816;2022-09-09T15:23:44;100898.20;;;33.20
68939;BMP180;59064;45.294;11.816;2022-09-09T15:26:11;100902.20;;;33.18
68939;BMP180;59064;45.294;11.816;2022-09-09T15:28:40;100902.60;;;33.20
68939;BMP180;59064;45.294;11.816;2022-09-09T15:31:22;100901.80;;;33.08
68939;BMP180;59064;45.294;11.816;2022-09-09T15:34:00;100902.20;;;33.10
68939;BMP180;59064;45.294;11.816;2022-09-09T15:36:28;100900.40;;;33.20
68939;BMP180;59064;45.294;11.816;2022-09-09T15:38:54;100901.80;;;33.40
68939;BMP180;59064;45.294;11.816;2022-09-09T15:41:22;100904.20;;;33.30
68939;BMP180;59064;45.294;11.816;2022-09-09T15:43:51;100896.40;;;33.16
68939;BMP180;59064;45.294;11.816;2022-09-09T15:48:46;100900.80;;;32.90
68939;BMP180;59064;45.294;11.816;2022-09-09T15:51:14;100903.00;;;32.90
68939;BMP180;59064;45.294;11.816;2022-09-09T15:53:40;100906.60;;;32.86
68939;BMP180;59064;45.294;11.816;2022-09-09T15:56:08;100906.60;;;32.90
68939;BMP180;59064;45.294;11.816;2022-09-09T15:58:35;100906.60;;;32.90
68939;BMP180;59064;45.294;11.816;2022-09-09T16:01:09;100911.60;;;32.86
68939;BMP180;59064;45.294;11.816;2022-09-09T16:03:36;100907.40;;;33.06
68939;BMP180;59064;45.294;11.816;2022-09-09T16:06:04;100908.40;;;33.20
68939;BMP180;59064;45.294;11.816;2022-09-09T16:08:35;100908.80;;;33.22
68939;BMP180;59064;45.294;11.816;2022-09-09T16:13:39;100904.80;;;32.60
68939;BMP180;59064;45.294;11.816;2022-09-09T16:16:06;100903.60;;;32.36
68939;BMP180;59064;45.294;11.816;2022-09-09T16:18:47;100901.20;;;32.30
68939;BMP180;59064;45.294;11.816;2022-09-09T16:21:19;100900.00;;;32.20
68939;BMP180;59064;45.294;11.816;2022-09-09T16:23:45;100899.20;;;32.10
68939;BMP180;59064;45.294;11.816;2022-09-09T16:26:13;100893.00;;;31.90
68939;BMP180;59064;45.294;11.816;2022-09-09T16:28:40;100899.00;;;31.50
68939;BMP180;59064;45.294;11.816;2022-09-09T16:31:08;100897.00;;;31.20
68939;BMP180;59064;45.294;11.816;2022-09-09T16:33:36;100892.60;;;31.12
68939;BMP180;59064;45.294;11.816;2022-09-09T16:36:15;100893.20;;;31.30